Time;durP1;ratioP1;P1;durP2;ratioP2;P2;SDS_P1;SDS_P2;PMS_P1;PMS_P2;Temp;Humidity;BMP_temperature;BMP_pressure;BME280_temperature;BME280_humidity;BME280_pressure;Samples;Min_cycle;Max_cycle;Signal;HPM_P1;HPM_P2
2021/03/14 00:01:42;;;;;;;11.50;2.50;;;6.00;99.90;;;;;;5015077;28;20208;-82
2021/03/14 00:04:27;;;;;;;12.33;2.80;;;6.00;99.90;;;;;;5021448;28;20216;-82
2021/03/14 00:07:13;;;;;;;7.10;2.50;;;5.90;99.90;;;;;;5018794;28;20304;-82
2021/03/14 00:09:58;;;;;;;13.43;2.90;;;5.90;99.90;;;;;;5014338;28;20212;-82
2021/03/14 00:12:43;;;;;;;13.80;2.77;;;5.80;99.90;;;;;;5019786;28;20208;-81
2021/03/14 00:15:28;;;;;;;6.57;2.00;;;5.80;99.90;;;;;;5025903;28;20279;-82
2021/03/14 00:18:14;;;;;;;16.47;5.13;;;5.80;99.90;;;;;;5023621;28;20243;-81
2021/03/14 00:20:59;;;;;;;12.63;3.20;;;5.80;99.90;;;;;;5022016;28;20575;-82
2021/03/14 00:23:45;;;;;;;10.77;3.20;;;5.70;99.90;;;;;;5016762;28;20208;-82
2021/03/14 00:26:30;;;;;;;11.80;3.43;;;5.70;99.90;;;;;;5016673;28;20247;-82
2021/03/14 00:29:15;;;;;;;14.87;3.93;;;5.70;99.90;;;;;;5014795;28;20208;-82
2021/03/14 00:32:01;;;;;;;12.23;3.70;;;5.70;99.90;;;;;;5015113;28;20279;-82
2021/03/14 00:34:46;;;;;;;13.03;4.73;;;5.70;99.90;;;;;;5012836;28;20204;-81
2021/03/14 00:37:31;;;;;;;13.73;4.03;;;5.70;99.90;;;;;;5033982;28;20235;-81
2021/03/14 00:40:17;;;;;;;17.30;4.73;;;5.80;99.90;;;;;;5029058;28;20212;-82
2021/03/14 00:43:04;;;;;;;14.57;4.97;;;5.80;99.90;;;;;;4998230;28;20797;-82
2021/03/14 00:45:49;;;;;;;11.27;4.70;;;5.80;99.90;;;;;;5012559;28;20248;-82
2021/03/14 00:48:34;;;;;;;21.80;5.40;;;5.80;99.90;;;;;;5014101;28;20248;-82
2021/03/14 00:51:18;;;;;;;16.63;3.77;;;5.90;99.90;;;;;;5013628;28;20200;-82
2021/03/14 00:54:03;;;;;;;13.40;3.83;;;5.90;99.90;;;;;;5011061;28;20247;-82
2021/03/14 00:56:49;;;;;;;14.23;3.67;;;5.90;99.90;;;;;;5014028;28;20747;-82
2021/03/14 00:59:34;;;;;;;12.50;2.40;;;6.00;99.90;;;;;;5013907;28;20671;-82
2021/03/14 01:02:19;;;;;;;7.17;2.40;;;6.00;99.90;;;;;;5009820;28;20208;-82
2021/03/14 01:05:04;;;;;;;8.33;2.43;;;6.00;99.90;;;;;;5015286;28;20264;-82
2021/03/14 01:07:49;;;;;;;13.33;3.13;;;6.00;99.90;;;;;;5014865;28;20310;-82
2021/03/14 01:10:34;;;;;;;17.67;2.50;;;6.10;99.90;;;;;;5017812;28;20257;-81
2021/03/14 01:13:19;;;;;;;10.63;2.60;;;6.10;99.90;;;;;;5035952;28;20203;-81
2021/03/14 01:16:05;;;;;;;13.07;2.67;;;6.10;99.90;;;;;;5035437;28;20945;-81
2021/03/14 01:18:50;;;;;;;13.07;2.43;;;6.10;99.90;;;;;;5028206;28;20233;-81
2021/03/14 01:21:35;;;;;;;7.67;2.50;;;6.10;99.90;;;;;;5011486;28;20204;-81
2021/03/14 01:24:20;;;;;;;9.57;2.13;;;6.20;99.90;;;;;;5009851;28;20263;-82
2021/03/14 01:27:05;;;;;;;9.40;2.67;;;6.20;99.90;;;;;;5015046;28;20303;-82
2021/03/14 01:29:50;;;;;;;8.97;2.20;;;6.20;99.90;;;;;;5012349;28;20242;-82
2021/03/14 01:32:35;;;;;;;12.43;2.53;;;6.20;99.90;;;;;;5016119;28;20468;-81
2021/03/14 01:35:20;;;;;;;9.93;2.70;;;6.20;99.90;;;;;;5028755;28;20220;-82
2021/03/14 01:38:05;;;;;;;10.50;2.37;;;6.20;99.90;;;;;;5024737;28;20235;-81
2021/03/14 01:40:50;;;;;;;12.50;3.00;;;6.20;99.90;;;;;;5028987;28;20208;-81
2021/03/14 01:43:36;;;;;;;11.30;2.33;;;6.30;99.90;;;;;;5028505;28;20235;-81
2021/03/14 01:46:23;;;;;;;12.67;2.50;;;6.20;99.90;;;;;;5024338;28;20251;-81
2021/03/14 01:49:08;;;;;;;9.67;2.33;;;6.30;99.90;;;;;;5027777;28;20211;-81
2021/03/14 01:51:53;;;;;;;8.80;2.63;;;6.30;99.90;;;;;;5027813;28;20208;-81
2021/03/14 01:54:38;;;;;;;15.43;3.77;;;6.20;99.90;;;;;;5025687;28;20212;-81
2021/03/14 01:57:23;;;;;;;9.97;2.43;;;6.30;99.90;;;;;;5020475;28;20259;-81
2021/03/14 02:00:09;;;;;;;11.47;3.00;;;6.30;99.90;;;;;;5024604;28;20220;-82
2021/03/14 02:02:55;;;;;;;11.63;2.97;;;6.30;99.90;;;;;;5012300;28;20213;-82
2021/03/14 02:05:40;;;;;;;11.50;2.50;;;6.30;99.90;;;;;;5013033;28;20618;-83
2021/03/14 02:08:25;;;;;;;13.77;2.67;;;6.30;99.90;;;;;;5009904;28;20235;-83
2021/03/14 02:11:09;;;;;;;9.20;2.67;;;6.30;99.90;;;;;;5004539;28;20204;-82
2021/03/14 02:13:56;;;;;;;13.80;3.27;;;6.30;99.90;;;;;;5015260;28;20256;-82
2021/03/14 02:16:43;;;;;;;12.60;2.83;;;6.30;99.90;;;;;;5013118;28;20595;-82
2021/03/14 02:19:34;;;;;;;13.07;2.30;;;6.30;99.90;;;;;;5015645;28;20363;-81
2021/03/14 02:22:22;;;;;;;7.83;2.53;;;6.30;99.90;;;;;;5026311;28;20207;-81
2021/03/14 02:25:11;;;;;;;7.63;2.43;;;6.40;99.90;;;;;;5017575;28;20209;-81
2021/03/14 02:27:57;;;;;;;11.37;2.60;;;6.40;99.90;;;;;;5016937;28;20246;-82
2021/03/14 02:30:44;;;;;;;13.83;3.33;;;6.40;99.90;;;;;;5016326;28;20243;-82
2021/03/14 02:33:31;;;;;;;10.83;2.57;;;6.40;99.90;;;;;;5012675;28;20215;-82
2021/03/14 02:36:18;;;;;;;11.97;2.67;;;6.40;99.90;;;;;;5017415;28;20223;-82
2021/03/14 02:39:06;;;;;;;7.73;2.30;;;6.40;99.90;;;;;;5014527;28;20208;-82
2021/03/14 02:41:52;;;;;;;12.17;2.50;;;6.40;99.90;;;;;;5004110;28;20211;-82
2021/03/14 02:44:41;;;;;;;10.03;2.90;;;6.40;99.90;;;;;;5016021;28;20432;-82
2021/03/14 02:47:27;;;;;;;11.20;2.60;;;6.40;99.90;;;;;;5016468;28;20301;-82
2021/03/14 02:50:15;;;;;;;15.03;2.63;;;6.40;99.90;;;;;;5010349;28;20224;-82
2021/03/14 02:53:01;;;;;;;11.00;2.20;;;6.40;99.90;;;;;;5011244;28;20211;-82
2021/03/14 02:55:47;;;;;;;14.13;2.57;;;6.40;99.90;;;;;;5014569;28;20244;-82
2021/03/14 02:58:33;;;;;;;11.50;1.93;;;6.40;99.90;;;;;;5015363;28;20223;-82
2021/03/14 03:01:19;;;;;;;11.37;1.80;;;6.40;99.90;;;;;;5012934;28;20209;-82
2021/03/14 03:04:05;;;;;;;10.50;2.70;;;6.40;99.90;;;;;;5006517;28;20235;-82
2021/03/14 03:06:53;;;;;;;13.93;3.07;;;6.40;99.90;;;;;;5016660;28;20572;-82
2021/03/14 03:09:38;;;;;;;13.03;2.80;;;6.40;99.90;;;;;;5011594;28;20200;-82
2021/03/14 03:12:26;;;;;;;12.67;2.40;;;6.40;99.90;;;;;;5007400;28;20250;-82
2021/03/14 03:15:12;;;;;;;8.60;2.23;;;6.40;99.90;;;;;;5015419;28;20207;-82
2021/03/14 03:17:58;;;;;;;9.70;2.30;;;6.40;99.90;;;;;;5012795;28;20271;-81
2021/03/14 03:20:44;;;;;;;9.73;2.30;;;6.40;99.90;;;;;;5034949;28;20220;-81
2021/03/14 03:23:29;;;;;;;9.40;2.53;;;6.40;99.90;;;;;;5022873;28;20769;-81
2021/03/14 03:26:15;;;;;;;9.67;2.60;;;6.40;99.90;;;;;;5004915;28;20200;-81
2021/03/14 03:28:59;;;;;;;8.53;2.03;;;6.40;99.90;;;;;;5021619;28;20292;-81
2021/03/14 03:31:46;;;;;;;10.93;2.40;;;6.30;99.90;;;;;;5027720;28;20212;-80
2021/03/14 03:34:32;;;;;;;12.20;2.27;;;6.30;99.90;;;;;;5010790;28;20203;-82
2021/03/14 03:37:17;;;;;;;8.40;2.20;;;6.30;99.90;;;;;;5006129;28;20240;-81
2021/03/14 03:40:02;;;;;;;8.13;2.73;;;6.30;99.90;;;;;;5000445;28;20209;-81
2021/03/14 03:42:53;;;;;;;9.77;2.33;;;6.20;99.90;;;;;;5011872;28;20696;-82
2021/03/14 03:45:40;;;;;;;10.50;2.70;;;6.20;99.90;;;;;;5009673;28;20200;-81
2021/03/14 03:48:30;;;;;;;11.47;2.43;;;6.20;99.90;;;;;;5012082;28;20227;-82
2021/03/14 03:51:19;;;;;;;10.23;2.50;;;6.10;99.90;;;;;;5013218;28;20218;-81
2021/03/14 03:54:05;;;;;;;11.17;2.20;;;6.10;99.90;;;;;;5006453;28;20240;-82
2021/03/14 03:56:53;;;;;;;11.80;2.87;;;6.00;99.90;;;;;;5013748;28;20644;-82
2021/03/14 03:59:39;;;;;;;10.90;2.77;;;6.00;99.90;;;;;;5025655;28;20295;-80
2021/03/14 04:02:25;;;;;;;8.13;2.90;;;5.90;99.90;;;;;;5021318;28;20230;-81
2021/03/14 04:05:13;;;;;;;9.80;2.50;;;5.90;99.90;;;;;;5029769;28;20223;-81
2021/03/14 04:07:59;;;;;;;10.27;2.10;;;5.80;99.90;;;;;;5029509;28;20232;-81
2021/03/14 04:10:45;;;;;;;13.87;3.17;;;5.70;99.90;;;;;;5017609;28;20227;-81
2021/03/14 04:13:31;;;;;;;10.77;3.33;;;5.70;99.90;;;;;;5015615;28;20231;-82
2021/03/14 04:16:17;;;;;;;9.37;3.30;;;5.70;99.90;;;;;;5014799;28;20224;-82
2021/03/14 04:19:04;;;;;;;18.60;3.63;;;5.60;99.90;;;;;;5014537;28;20287;-82
2021/03/14 04:21:51;;;;;;;11.33;3.23;;;5.60;99.90;;;;;;5022522;28;20196;-81
2021/03/14 04:24:37;;;;;;;8.90;2.47;;;5.60;99.90;;;;;;5030381;28;20211;-81
2021/03/14 04:27:23;;;;;;;13.43;3.00;;;5.60;99.90;;;;;;5025650;28;20224;-81
2021/03/14 04:30:10;;;;;;;11.43;2.50;;;5.60;99.90;;;;;;5029327;28;20224;-81
2021/03/14 04:32:56;;;;;;;8.03;2.90;;;5.60;99.90;;;;;;5028079;28;20259;-82
2021/03/14 04:35:41;;;;;;;16.00;3.13;;;5.60;99.90;;;;;;5006303;28;20292;-82
2021/03/14 04:38:26;;;;;;;9.63;2.47;;;5.60;99.90;;;;;;5014380;28;20236;-82
2021/03/14 04:41:13;;;;;;;9.10;2.77;;;5.60;99.90;;;;;;5014910;28;20335;-82
2021/03/14 04:43:59;;;;;;;8.40;2.47;;;5.60;99.90;;;;;;5013648;28;20247;-82
2021/03/14 04:46:44;;;;;;;13.47;3.37;;;5.60;99.90;;;;;;5005373;28;20589;-82
2021/03/14 04:49:29;;;;;;;11.80;3.00;;;5.60;99.90;;;;;;5014494;28;20267;-82
2021/03/14 04:52:19;;;;;;;11.30;3.03;;;5.60;99.90;;;;;;5008395;28;20251;-82
2021/03/14 04:55:05;;;;;;;13.40;3.17;;;5.60;99.90;;;;;;5010537;28;20231;-81
2021/03/14 04:57:51;;;;;;;12.90;3.23;;;5.60;99.90;;;;;;5014229;28;20275;-81
2021/03/14 05:00:37;;;;;;;8.70;2.97;;;5.60;99.90;;;;;;5007167;28;20227;-81
2021/03/14 05:03:24;;;;;;;15.93;3.57;;;5.60;99.90;;;;;;5014842;28;20208;-81
2021/03/14 05:06:09;;;;;;;9.90;3.07;;;5.60;99.90;;;;;;5025618;28;20232;-81
2021/03/14 05:08:59;;;;;;;14.40;3.37;;;5.60;99.90;;;;;;5019243;28;20328;-81
2021/03/14 05:11:45;;;;;;;9.87;3.30;;;5.60;99.90;;;;;;5014854;28;20656;-82
2021/03/14 05:14:32;;;;;;;11.03;2.73;;;5.50;99.90;;;;;;5016124;28;20211;-82
2021/03/14 05:17:18;;;;;;;12.30;3.50;;;5.50;99.90;;;;;;5010860;28;20743;-82
2021/03/14 05:20:04;;;;;;;10.63;3.17;;;5.50;99.90;;;;;;5013462;28;20247;-81
2021/03/14 05:22:50;;;;;;;8.83;3.13;;;5.50;99.90;;;;;;5015131;28;20223;-82
2021/03/14 05:25:35;;;;;;;13.53;3.80;;;5.50;99.90;;;;;;5012678;28;20656;-82
2021/03/14 05:28:20;;;;;;;13.93;4.13;;;5.50;99.90;;;;;;5016932;28;20227;-82
2021/03/14 05:31:32;;;;;;;13.60;4.07;;;5.50;99.90;;;;;;5007824;28;20207;-82
2021/03/14 05:34:18;;;;;;;10.97;3.53;;;5.60;99.90;;;;;;5016598;28;21044;-82
2021/03/14 05:37:03;;;;;;;8.90;3.57;;;5.50;99.90;;;;;;5022468;28;20231;-82
2021/03/14 05:39:47;;;;;;;15.57;4.27;;;5.50;99.90;;;;;;5022954;28;20211;-82
2021/03/14 05:42:33;;;;;;;9.40;4.50;;;5.50;99.90;;;;;;5019975;28;20261;-82
2021/03/14 05:45:19;;;;;;;10.33;5.10;;;5.60;99.90;;;;;;5020313;28;20255;-82
2021/03/14 05:48:06;;;;;;;13.03;5.17;;;5.60;99.90;;;;;;5022948;28;20230;-82
2021/03/14 05:50:51;;;;;;;14.70;5.93;;;5.60;99.90;;;;;;5026942;28;20343;-82
2021/03/14 05:53:39;;;;;;;12.50;5.67;;;5.60;99.90;;;;;;5025292;28;20220;-82
2021/03/14 05:56:25;;;;;;;17.97;5.87;;;5.60;99.90;;;;;;5028262;28;20216;-82
2021/03/14 05:59:13;;;;;;;10.50;5.17;;;5.60;99.90;;;;;;5024419;28;20212;-81
2021/03/14 06:02:01;;;;;;;12.77;5.03;;;5.60;99.90;;;;;;5031189;28;20264;-81
2021/03/14 06:04:47;;;;;;;14.83;5.77;;;5.50;99.90;;;;;;5023777;28;20208;-82
2021/03/14 06:07:33;;;;;;;11.77;5.40;;;5.50;99.90;;;;;;5018563;28;20292;-81
2021/03/14 06:10:18;;;;;;;10.80;5.53;;;5.50;99.90;;;;;;5024707;28;20196;-81
2021/03/14 06:13:03;;;;;;;13.20;5.37;;;5.50;99.90;;;;;;5026884;28;20303;-81
2021/03/14 06:15:48;;;;;;;11.27;5.33;;;5.50;99.90;;;;;;5027403;28;20212;-81
2021/03/14 06:18:34;;;;;;;13.77;6.07;;;5.50;99.90;;;;;;5020197;28;20303;-81
2021/03/14 06:21:21;;;;;;;14.73;6.33;;;5.50;99.90;;;;;;5024438;28;20224;-81
2021/03/14 06:24:09;;;;;;;14.60;7.10;;;5.50;99.90;;;;;;5023114;28;20255;-82
2021/03/14 06:26:59;;;;;;;14.97;6.43;;;5.50;99.90;;;;;;5008749;28;20224;-81
2021/03/14 06:29:44;;;;;;;12.53;6.73;;;5.50;99.90;;;;;;5016938;28;20208;-81
2021/03/14 06:32:28;;;;;;;19.00;8.03;;;5.50;99.90;;;;;;5014083;28;20738;-82
2021/03/14 06:35:18;;;;;;;18.50;8.67;;;5.50;99.90;;;;;;5013609;28;20250;-82
2021/03/14 06:38:22;;;;;;;16.63;7.63;;;5.50;99.90;;;;;;5004665;28;20215;-81
2021/03/14 06:41:16;;;;;;;18.50;8.67;;;5.50;99.90;;;;;;5027473;28;20624;-81
2021/03/14 06:44:01;;;;;;;14.20;7.33;;;5.50;99.90;;;;;;5020478;28;20259;-82
2021/03/14 06:46:46;;;;;;;13.93;7.40;;;5.50;99.90;;;;;;5020033;28;20232;-81
2021/03/14 06:49:39;;;;;;;19.53;7.10;;;5.50;99.90;;;;;;5015246;28;20232;-81
2021/03/14 06:52:24;;;;;;;17.93;7.80;;;5.50;99.90;;;;;;5009418;28;20208;-82
2021/03/14 06:55:25;;;;;;;12.37;6.77;;;5.50;99.90;;;;;;5016492;28;20244;-82
2021/03/14 06:58:26;;;;;;;13.23;7.03;;;5.50;99.90;;;;;;5011257;28;20231;-82
2021/03/14 07:01:15;;;;;;;17.63;7.60;;;5.50;99.90;;;;;;5005159;28;20262;-82
2021/03/14 07:04:00;;;;;;;13.53;7.97;;;5.50;99.90;;;;;;5005616;28;20235;-82
2021/03/14 07:06:45;;;;;;;19.57;8.57;;;5.50;99.90;;;;;;5011947;28;20223;-82
2021/03/14 07:09:30;;;;;;;14.47;8.27;;;5.50;99.90;;;;;;5010208;28;20242;-81
2021/03/14 07:12:19;;;;;;;13.60;7.53;;;5.50;99.90;;;;;;5012273;28;20775;-82
2021/03/14 07:15:13;;;;;;;15.03;8.87;;;5.50;99.90;;;;;;5012496;28;20216;-85
2021/03/14 07:18:00;;;;;;;15.47;8.87;;;5.50;99.90;;;;;;5006685;28;20287;-81
2021/03/14 07:20:45;;;;;;;18.07;8.73;;;5.50;99.90;;;;;;5010672;28;20231;-81
2021/03/14 07:23:34;;;;;;;17.20;8.30;;;5.60;99.90;;;;;;5011229;28;20255;-81
2021/03/14 07:26:45;;;;;;;18.23;10.27;;;5.50;99.90;;;;;;5000599;28;20749;-81
2021/03/14 07:29:34;;;;;;;22.13;11.10;;;5.50;99.90;;;;;;5009405;28;20292;-81
2021/03/14 07:32:19;;;;;;;15.33;10.50;;;5.60;99.90;;;;;;5011345;28;20670;-81
2021/03/14 07:35:05;;;;;;;19.70;11.90;;;5.60;99.90;;;;;;5005143;28;20268;-81
2021/03/14 07:37:52;;;;;;;19.27;9.80;;;5.60;99.90;;;;;;5032483;28;20239;-80
2021/03/14 07:40:37;;;;;;;20.13;11.67;;;5.60;99.90;;;;;;5036724;28;20224;-80
2021/03/14 07:43:22;;;;;;;22.90;11.40;;;5.60;99.90;;;;;;5023831;28;20234;-79
2021/03/14 07:46:08;;;;;;;17.53;10.87;;;5.60;99.90;;;;;;5034475;28;20204;-79
2021/03/14 07:48:54;;;;;;;19.33;13.53;;;5.70;99.90;;;;;;5004769;28;20693;-78
2021/03/14 07:51:42;;;;;;;25.50;13.20;;;5.70;99.90;;;;;;5013034;28;20212;-81
2021/03/14 07:54:38;;;;;;;19.73;12.43;;;5.70;99.90;;;;;;5014654;28;20212;-79
2021/03/14 07:57:24;;;;;;;21.73;12.10;;;5.70;99.90;;;;;;5010368;28;20224;-79
2021/03/14 08:00:25;;;;;;;22.50;12.70;;;5.80;99.90;;;;;;5010444;28;20787;-80
2021/03/14 08:03:11;;;;;;;12.60;8.83;;;5.80;99.90;;;;;;5010672;28;20251;-80
2021/03/14 08:05:56;;;;;;;12.70;7.73;;;5.80;99.90;;;;;;5002667;28;20223;-81
2021/03/14 08:08:46;;;;;;;21.87;13.07;;;5.90;99.90;;;;;;5005690;28;20255;-80
2021/03/14 08:11:31;;;;;;;18.97;11.70;;;5.90;99.90;;;;;;5002587;28;20696;-78
2021/03/14 08:14:41;;;;;;;19.67;12.90;;;6.00;99.90;;;;;;5008236;28;20215;-79
2021/03/14 08:17:35;;;;;;;17.17;10.97;;;6.00;99.90;;;;;;5000248;28;20678;-78
2021/03/14 08:20:45;;;;;;;22.73;12.00;;;6.10;99.90;;;;;;5022485;28;20209;-80
2021/03/14 08:23:44;;;;;;;16.60;12.27;;;6.10;99.90;;;;;;5022295;28;20280;-78
2021/03/14 08:26:32;;;;;;;23.00;13.60;;;6.20;99.90;;;;;;5022763;28;20208;-80
2021/03/14 08:29:17;;;;;;;25.70;11.67;;;6.20;99.90;;;;;;5010916;28;20319;-80
2021/03/14 08:32:02;;;;;;;21.67;12.57;;;6.30;99.90;;;;;;5010328;28;20667;-80
2021/03/14 08:34:47;;;;;;;18.70;12.80;;;6.40;99.90;;;;;;5008976;28;20211;-80
2021/03/14 08:37:32;;;;;;;19.03;10.63;;;6.50;99.90;;;;;;5010582;28;20258;-79
2021/03/14 08:40:17;;;;;;;16.23;9.97;;;6.60;99.90;;;;;;5010009;28;20216;-80
2021/03/14 08:43:02;;;;;;;18.23;9.63;;;6.70;99.90;;;;;;5035636;28;20219;-77
2021/03/14 08:45:48;;;;;;;18.57;9.33;;;6.80;99.90;;;;;;5023440;28;20216;-80
2021/03/14 08:48:33;;;;;;;19.97;9.30;;;7.00;99.90;;;;;;5010873;28;20226;-79
2021/03/14 08:51:18;;;;;;;14.67;8.23;;;7.10;99.90;;;;;;5010597;28;20670;-79
2021/03/14 08:54:04;;;;;;;15.67;9.23;;;7.20;99.90;;;;;;5011057;28;20263;-79
2021/03/14 08:56:49;;;;;;;11.97;7.70;;;7.30;99.90;;;;;;5009310;28;20605;-80
2021/03/14 08:59:34;;;;;;;15.97;7.90;;;7.50;99.90;;;;;;5009838;28;20215;-79
2021/03/14 09:02:23;;;;;;;14.03;8.30;;;7.60;99.90;;;;;;5010463;28;20219;-81
2021/03/14 09:05:10;;;;;;;17.83;8.47;;;7.70;99.90;;;;;;5000850;28;20200;-79
2021/03/14 09:07:59;;;;;;;18.10;8.27;;;7.90;99.90;;;;;;5000615;28;20232;-79
2021/03/14 09:10:44;;;;;;;13.87;7.20;;;8.00;99.90;;;;;;5008521;28;20228;-80
2021/03/14 09:13:30;;;;;;;12.27;7.37;;;8.10;99.90;;;;;;5011389;28;20219;-80
2021/03/14 09:16:15;;;;;;;14.87;7.63;;;8.30;99.90;;;;;;5011728;28;20223;-80
2021/03/14 09:19:02;;;;;;;16.07;8.00;;;8.40;99.90;;;;;;5008103;28;20215;-80
2021/03/14 09:21:48;;;;;;;17.20;7.90;;;8.50;99.90;;;;;;5013151;28;20212;-79
2021/03/14 09:24:39;;;;;;;13.10;6.80;;;8.60;99.90;;;;;;5021033;28;20611;-79
2021/03/14 09:27:27;;;;;;;15.70;7.10;;;8.70;99.90;;;;;;5017441;28;20641;-79
2021/03/14 09:30:14;;;;;;;14.43;7.23;;;8.80;99.90;;;;;;5019346;28;20324;-79
2021/03/14 09:33:03;;;;;;;14.70;7.47;;;8.90;99.90;;;;;;5007366;28;20340;-79
2021/03/14 09:35:47;;;;;;;13.07;6.73;;;9.10;99.90;;;;;;5013358;28;20212;-79
2021/03/14 09:38:32;;;;;;;12.97;6.80;;;9.20;99.90;;;;;;5019156;28;20228;-80
2021/03/14 09:41:16;;;;;;;12.10;7.40;;;9.30;99.90;;;;;;5020719;28;20283;-80
2021/03/14 09:44:14;;;;;;;12.83;6.67;;;9.40;99.90;;;;;;5011859;28;20216;-79
2021/03/14 09:47:00;;;;;;;13.10;6.80;;;9.60;99.90;;;;;;5014704;28;20294;-80
2021/03/14 09:49:59;;;;;;;16.57;7.17;;;9.70;99.90;;;;;;5021187;28;20219;-78
2021/03/14 09:52:44;;;;;;;11.70;6.23;;;9.80;99.90;;;;;;5031759;28;20207;-79
2021/03/14 09:55:31;;;;;;;13.27;6.43;;;9.90;99.90;;;;;;5027660;28;20537;-78
2021/03/14 09:58:17;;;;;;;9.10;5.40;;;10.00;99.90;;;;;;5017839;28;20232;-79
2021/03/14 10:01:06;;;;;;;15.23;5.30;;;10.10;99.90;;;;;;5014944;28;20524;-80
2021/03/14 10:03:58;;;;;;;10.33;6.03;;;10.20;99.90;;;;;;5011330;28;20747;-79
2021/03/14 10:06:43;;;;;;;14.47;5.40;;;10.30;99.90;;;;;;5015849;28;20575;-82
2021/03/14 10:09:31;;;;;;;12.90;4.60;;;10.40;99.90;;;;;;5010686;28;20703;-78
2021/03/14 10:12:16;;;;;;;9.97;4.77;;;10.40;99.90;;;;;;5013777;28;20229;-80
2021/03/14 10:15:06;;;;;;;11.53;4.47;;;10.50;99.90;;;;;;5016601;28;20282;-80
2021/03/14 10:17:52;;;;;;;8.30;4.27;;;10.50;99.90;;;;;;5015248;28;20243;-81
2021/03/14 10:20:37;;;;;;;12.57;4.90;;;10.50;99.90;;;;;;5013041;28;20200;-80
2021/03/14 10:23:24;;;;;;;10.17;4.93;;;10.50;99.90;;;;;;5015048;28;20802;-80
2021/03/14 10:26:10;;;;;;;8.73;4.60;;;10.40;99.90;;;;;;5014311;28;20711;-80
2021/03/14 10:28:55;;;;;;;14.70;4.93;;;10.40;99.90;;;;;;5015790;28;20229;-80
2021/03/14 10:31:40;;;;;;;14.20;5.20;;;10.30;99.90;;;;;;5015859;28;20223;-80
2021/03/14 10:34:34;;;;;;;7.93;4.40;;;10.20;99.90;;;;;;5057640;22;20243;-84
2021/03/14 10:37:33;;;;;;;11.47;5.70;;;10.10;99.90;;;;;;5041407;28;20270;-86
2021/03/14 10:40:22;;;;;;;11.80;4.87;;;10.10;99.90;;;;;;5042793;28;20231;-86
2021/03/14 10:43:28;;;;;;;7.60;4.17;;;10.20;99.90;;;;;;5024142;28;20211;-85
2021/03/14 10:46:16;;;;;;;8.23;3.17;;;10.40;99.90;;;;;;5028715;28;20211;-87
2021/03/14 10:49:11;;;;;;;5.57;3.03;;;10.60;99.90;;;;;;5027200;28;20211;-87
2021/03/14 10:52:06;;;;;;;11.13;4.33;;;10.80;99.90;;;;;;5023268;28;20206;-85
2021/03/14 10:54:51;;;;;;;8.90;4.27;;;10.90;99.90;;;;;;5040967;28;20183;-86
2021/03/14 10:57:36;;;;;;;8.57;3.60;;;11.20;99.90;;;;;;5024325;28;20228;-88
2021/03/14 11:00:27;;;;;;;9.10;3.10;;;11.50;99.90;;;;;;5020472;28;20820;-87
2021/03/14 11:03:37;;;;;;;3.80;2.50;;;11.90;99.90;;;;;;5024855;28;20207;-89
2021/03/14 11:06:38;;;;;;;4.27;2.57;;;12.20;99.90;;;;;;5017463;28;20273;-89
2021/03/14 11:09:46;;;;;;;2.87;1.93;;;12.00;99.90;;;;;;5020997;28;20624;-87
2021/03/14 11:12:38;;;;;;;2.13;2.00;;;11.90;99.90;;;;;;5022382;28;20206;-87
2021/03/14 11:15:29;;;;;;;2.40;1.60;;;11.60;99.90;;;;;;5019668;28;20223;-88
2021/03/14 11:18:29;;;;;;;1.60;1.50;;;11.20;99.90;;;;;;5026012;28;20283;-90
2021/03/14 11:21:20;;;;;;;2.70;1.73;;;11.00;99.90;;;;;;5019866;28;20234;-89
2021/03/14 11:24:07;;;;;;;2.50;1.67;;;10.80;99.90;;;;;;5021006;28;20627;-89
2021/03/14 11:26:59;;;;;;;2.87;1.93;;;10.70;99.90;;;;;;5026312;28;20253;-88
2021/03/14 11:29:45;;;;;;;3.57;1.87;;;10.60;99.90;;;;;;5021014;28;20592;-88
2021/03/14 11:32:32;;;;;;;2.10;2.00;;;10.60;99.90;;;;;;5019421;28;20214;-88
2021/03/14 11:35:17;;;;;;;5.50;2.37;;;10.50;99.90;;;;;;5021416;28;20588;-88
2021/03/14 11:38:02;;;;;;;5.13;2.10;;;10.50;99.90;;;;;;5024376;28;20282;-88
2021/03/14 11:40:54;;;;;;;3.43;2.70;;;10.50;99.90;;;;;;5021619;28;20756;-88
2021/03/14 11:43:40;;;;;;;6.60;2.90;;;10.60;99.90;;;;;;5020216;28;20582;-88
2021/03/14 11:46:25;;;;;;;9.00;3.50;;;10.60;99.90;;;;;;5028903;28;20210;-87
2021/03/14 11:49:10;;;;;;;6.53;4.10;;;10.70;99.90;;;;;;5019396;28;20287;-89
2021/03/14 11:51:55;;;;;;;5.87;4.03;;;10.90;99.90;;;;;;5020626;28;20780;-88
2021/03/14 11:54:39;;;;;;;7.33;3.90;;;11.10;99.90;;;;;;5028061;28;20250;-88
2021/03/14 12:02:14;;;;;;;9.83;4.20;;;11.90;99.90;;;;;;5014799;22;20289;-88
2021/03/14 12:05:41;;;;;;;;;;;;;;;;;;;;;
2021/03/14 12:12:07;;;;;;;8.63;3.70;;;12.90;99.90;;;;;;5048187;28;20310;-87
2021/03/14 12:14:53;;;;;;;10.03;3.40;;;13.10;99.90;;;;;;5032378;28;20285;-88
2021/03/14 12:17:38;;;;;;;10.17;3.47;;;13.20;99.90;;;;;;5042483;28;20272;-85
2021/03/14 12:21:18;;;;;;;6.60;3.60;;;13.20;99.90;;;;;;5057519;28;20230;-88
2021/03/14 12:24:03;;;;;;;11.03;3.90;;;13.10;99.90;;;;;;5017529;28;20346;-88
2021/03/14 12:27:27;;;;;;;14.03;4.13;;;12.90;99.90;;;;;;5062517;28;20222;-87
2021/03/14 12:30:14;;;;;;;5.73;3.10;;;12.90;99.90;;;;;;5049415;28;20238;-85
2021/03/14 12:33:00;;;;;;;10.33;3.37;;;12.90;99.90;;;;;;5055834;28;20257;-88
2021/03/14 12:35:45;;;;;;;9.13;3.80;;;13.00;99.90;;;;;;5056448;28;20695;-87
2021/03/14 12:38:30;;;;;;;4.83;3.30;;;13.00;99.90;;;;;;5051502;28;20230;-87
2021/03/14 12:41:15;;;;;;;14.37;6.03;;;13.00;99.90;;;;;;5048874;28;20223;-86
2021/03/14 12:44:00;;;;;;;14.27;3.90;;;13.10;99.90;;;;;;5052553;28;20273;-85
2021/03/14 12:46:48;;;;;;;7.47;3.00;;;13.10;99.90;;;;;;5046395;28;20736;-88
2021/03/14 12:49:34;;;;;;;9.17;2.90;;;13.20;99.90;;;;;;5056770;28;20718;-89
2021/03/14 12:52:19;;;;;;;13.17;3.00;;;13.20;99.90;;;;;;5052286;28;20218;-87
2021/03/14 12:55:06;;;;;;;4.30;2.00;;;13.30;99.90;;;;;;5043383;28;20227;-87
2021/03/14 12:57:52;;;;;;;5.37;2.43;;;13.20;99.90;;;;;;5045355;28;20657;-86
2021/03/14 13:00:37;;;;;;;5.67;2.63;;;13.20;99.90;;;;;;5053663;28;20299;-86
2021/03/14 13:03:22;;;;;;;5.03;2.83;;;13.10;99.90;;;;;;5048450;28;20215;-87
2021/03/14 13:06:15;;;;;;;4.70;2.60;;;13.20;99.90;;;;;;5039502;28;20238;-87
2021/03/14 13:09:04;;;;;;;4.23;2.10;;;13.10;99.90;;;;;;5056872;28;20218;-86
2021/03/14 13:11:49;;;;;;;5.17;2.27;;;13.40;99.90;;;;;;5051840;28;20266;-87
2021/03/14 13:14:37;;;;;;;5.17;2.27;;;13.60;99.90;;;;;;5055964;28;20197;-86
2021/03/14 13:17:23;;;;;;;7.67;2.73;;;14.00;99.90;;;;;;5042853;28;20231;-86
2021/03/14 13:20:09;;;;;;;5.50;2.57;;;13.90;99.90;;;;;;5047924;28;20231;-86
2021/03/14 13:22:55;;;;;;;6.77;2.57;;;13.90;99.90;;;;;;5054765;28;20214;-88
2021/03/14 13:25:40;;;;;;;5.43;2.83;;;13.90;99.90;;;;;;5065014;28;20584;-86
2021/03/14 13:28:29;;;;;;;7.23;3.07;;;13.80;99.90;;;;;;5038749;28;20506;-87
2021/03/14 13:31:21;;;;;;;8.27;2.93;;;13.70;99.90;;;;;;5048105;28;20234;-86
2021/03/14 13:34:06;;;;;;;5.20;2.47;;;13.60;99.90;;;;;;5052459;28;20207;-87
2021/03/14 13:36:51;;;;;;;6.47;2.40;;;13.70;99.90;;;;;;5058393;23;20214;-80
2021/03/14 13:39:37;;;;;;;5.87;2.80;;;13.50;99.90;;;;;;5049688;28;20214;-80
2021/03/14 13:42:24;;;;;;;4.43;2.50;;;13.50;99.90;;;;;;5045257;28;20203;-80
2021/03/14 13:45:09;;;;;;;6.33;3.20;;;13.40;99.90;;;;;;5046410;28;20235;-79
2021/03/14 13:47:56;;;;;;;6.87;2.90;;;13.30;99.90;;;;;;5046202;28;20614;-82
2021/03/14 13:50:41;;;;;;;8.83;2.90;;;13.30;99.90;;;;;;5053731;28;20238;-79
2021/03/14 13:53:27;;;;;;;6.57;2.67;;;13.20;99.90;;;;;;5052152;28;20203;-80
2021/03/14 13:56:20;;;;;;;10.60;3.73;;;13.20;99.90;;;;;;5041328;28;20262;-80
2021/03/14 13:59:05;;;;;;;12.03;3.67;;;13.20;99.90;;;;;;5060809;28;20219;-81
2021/03/14 14:01:50;;;;;;;9.87;2.70;;;13.10;99.90;;;;;;5055656;28;20215;-80
2021/03/14 14:04:36;;;;;;;7.37;2.97;;;13.10;99.90;;;;;;5061207;28;20274;-82
2021/03/14 14:07:21;;;;;;;8.27;2.73;;;13.20;99.90;;;;;;5061128;28;20458;-80
2021/03/14 14:10:07;;;;;;;9.10;2.70;;;13.30;99.90;;;;;;5064531;28;20245;-80
2021/03/14 14:12:54;;;;;;;9.07;2.40;;;13.40;99.90;;;;;;5047974;28;20211;-80
2021/03/14 14:15:39;;;;;;;8.03;2.60;;;13.40;99.90;;;;;;5055242;28;20721;-82
2021/03/14 14:18:25;;;;;;;7.13;2.67;;;13.40;99.90;;;;;;5061220;28;20265;-81
2021/03/14 14:21:10;;;;;;;6.70;2.63;;;13.30;99.90;;;;;;5054681;28;20215;-81
2021/03/14 14:23:55;;;;;;;8.03;3.03;;;13.20;99.90;;;;;;5063934;28;20249;-80
2021/03/14 14:26:40;;;;;;;9.10;2.90;;;13.10;99.90;;;;;;5053563;28;20620;-81
2021/03/14 14:29:25;;;;;;;9.10;2.43;;;13.00;99.90;;;;;;5054117;28;20215;-80
2021/03/14 14:32:10;;;;;;;6.60;3.03;;;12.90;99.90;;;;;;5059311;28;20721;-80
2021/03/14 14:34:55;;;;;;;10.10;3.33;;;12.80;99.90;;;;;;5065304;28;20264;-81
2021/03/14 14:37:40;;;;;;;15.60;4.13;;;12.70;99.90;;;;;;5064315;28;20285;-81
2021/03/14 14:40:25;;;;;;;9.37;2.90;;;12.70;99.90;;;;;;5055704;28;20212;-81
2021/03/14 14:43:10;;;;;;;5.77;2.83;;;12.60;99.90;;;;;;5059708;28;20206;-81